createdAt,value
2023-04-01T06:20:27.945Z,987.94
2023-04-01T06:30:27.746Z,988.04
2023-04-01T06:40:27.940Z,988.07
2023-04-01T06:50:27.887Z,988.26
2023-04-01T07:00:27.982Z,988.32
2023-04-01T07:10:28.028Z,988.54
2023-04-01T07:20:27.900Z,988.74
2023-04-01T07:30:27.936Z,989.00
2023-04-01T07:40:27.798Z,989.26
2023-04-01T07:50:27.985Z,989.55
2023-04-01T08:00:28.066Z,989.69
2023-04-01T08:10:28.009Z,989.85
2023-04-01T08:20:27.861Z,990.01
2023-04-01T08:30:28.024Z,990.12
2023-04-01T08:40:28.010Z,990.22
2023-04-01T08:50:28.161Z,990.31
2023-04-01T09:00:28.327Z,990.44
2023-04-01T09:10:28.196Z,990.33
2023-04-01T09:20:28.264Z,990.39
2023-04-01T09:30:28.124Z,990.58
2023-04-01T09:40:28.204Z,990.65
2023-04-01T09:50:28.256Z,990.73
2023-04-01T10:00:28.117Z,990.80
2023-04-01T10:10:28.293Z,990.84
2023-04-01T10:20:28.070Z,990.97
2023-04-01T10:30:28.138Z,991.08
2023-04-01T10:40:28.176Z,991.12
2023-04-01T10:50:28.241Z,991.09
2023-04-01T11:00:28.300Z,991.23
2023-04-01T11:10:29.332Z,991.24
2023-04-01T11:20:28.238Z,991.44
2023-04-01T11:30:28.030Z,991.55
2023-04-01T11:40:28.363Z,991.56
2023-04-01T11:50:28.157Z,991.62
2023-04-01T12:00:28.307Z,991.67
2023-04-01T12:10:28.360Z,991.81
2023-04-01T12:20:28.314Z,991.87
2023-04-01T12:30:28.381Z,992.12
2023-04-01T12:40:28.485Z,992.19
2023-04-01T12:50:28.204Z,992.22
2023-04-01T13:00:28.407Z,992.39
2023-04-01T13:10:28.446Z,992.48
2023-04-01T13:20:28.323Z,992.72
2023-04-01T13:30:28.471Z,992.69
2023-04-01T13:40:28.548Z,992.69
2023-04-01T13:50:28.404Z,992.88
2023-04-01T14:00:28.436Z,992.82
2023-04-01T14:10:28.174Z,993.24
2023-04-01T14:20:28.190Z,993.23
2023-04-01T14:30:28.353Z,993.21
2023-04-01T14:40:28.325Z,993.38
2023-04-01T14:50:28.501Z,993.47
2023-04-01T15:00:28.241Z,993.87
2023-04-01T15:10:28.313Z,993.89
2023-04-01T15:20:28.239Z,993.96
2023-04-01T15:30:28.441Z,994.20
2023-04-01T15:40:28.404Z,994.48
2023-04-01T15:50:28.381Z,994.30
2023-04-01T16:00:28.545Z,994.48
2023-04-01T16:10:28.499Z,994.81
2023-04-01T16:20:28.249Z,995.01
2023-04-01T16:30:28.530Z,995.35
2023-04-01T16:40:28.480Z,995.46
2023-04-01T16:50:29.001Z,995.67
2023-04-01T17:00:28.453Z,995.89
2023-04-01T17:10:28.584Z,995.97
2023-04-01T17:20:28.552Z,996.09
2023-04-01T17:30:28.440Z,996.61
2023-04-01T17:40:28.474Z,996.84
2023-04-01T17:50:28.440Z,997.08
2023-04-01T18:00:32.387Z,997.25
2023-04-01T18:10:28.679Z,997.57
2023-04-01T18:20:28.425Z,997.76
2023-04-01T18:30:28.637Z,997.97
2023-04-01T18:40:28.470Z,998.25
2023-04-01T18:50:28.630Z,998.38
2023-04-01T19:00:28.687Z,998.62
2023-04-01T19:10:28.446Z,998.81
2023-04-01T19:20:28.610Z,998.97
